createdAt,value
2022-08-28T00:00:25.328Z,1015.14
2022-08-28T00:00:42.224Z,1015.14
2022-08-28T00:01:13.879Z,1015.14
2022-08-28T00:01:35.626Z,1015.24
2022-08-28T00:02:01.223Z,1015.24
2022-08-28T00:02:33.224Z,1015.24
2022-08-28T00:03:05.774Z,1015.14
2022-08-28T00:03:34.848Z,1015.14
2022-08-28T00:03:53.230Z,1015.14
2022-08-28T00:04:25.795Z,1015.14
2022-08-28T00:04:42.750Z,1015.34
2022-08-28T00:05:13.205Z,1015.34
2022-08-28T00:05:35.831Z,1015.34
2022-08-28T00:06:02.922Z,1015.34
2022-08-28T00:06:34.749Z,1015.34
2022-08-28T00:07:05.823Z,1015.03
2022-08-28T00:07:34.761Z,1015.14
2022-08-28T00:07:53.105Z,1015.14
2022-08-28T00:08:35.626Z,1015.14
2022-08-28T00:08:57.833Z,1015.14
2022-08-28T00:09:29.165Z,1015.14
2022-08-28T00:10:01.216Z,1015.14
2022-08-28T00:10:34.070Z,1015.14
2022-08-28T00:11:05.159Z,1015.14
2022-08-28T00:11:35.490Z,1015.24
2022-08-28T00:11:53.188Z,1015.24
2022-08-28T00:12:25.123Z,1015.24
2022-08-28T00:12:42.948Z,1015.34
2022-08-28T00:13:13.111Z,1015.34
2022-08-28T00:13:34.722Z,1015.24
2022-08-28T00:14:01.202Z,1015.24
2022-08-28T00:14:33.328Z,1015.24
2022-08-28T00:15:06.038Z,1015.24
2022-08-28T00:15:35.397Z,1015.24
2022-08-28T00:15:53.416Z,1015.24
2022-08-28T00:16:25.388Z,1015.24
2022-08-28T00:16:43.824Z,1015.34
2022-08-28T00:17:13.786Z,1015.34
2022-08-28T00:17:34.705Z,1015.14
2022-08-28T00:18:01.117Z,1015.14
2022-08-28T00:18:34.216Z,1015.14
2022-08-28T00:19:05.101Z,1015.24
2022-08-28T00:19:38.451Z,1015.24
2022-08-28T00:19:53.125Z,1015.24
2022-08-28T00:20:26.144Z,1015.24
2022-08-28T00:20:43.522Z,1015.24
2022-08-28T00:21:13.103Z,1015.24
2022-08-28T00:21:36.204Z,1015.24
2022-08-28T00:22:01.495Z,1015.24
2022-08-28T00:22:33.812Z,1015.24
2022-08-28T00:23:05.277Z,1015.14
2022-08-28T00:23:42.443Z,1015.34
2022-08-28T00:23:54.151Z,1015.34
2022-08-28T00:24:25.103Z,1015.34
2022-08-28T00:24:44.365Z,1015.34
2022-08-28T00:25:13.359Z,1015.34
2022-08-28T00:25:34.794Z,1015.24
2022-08-28T00:26:01.102Z,1015.24
2022-08-28T00:26:33.743Z,1015.24
2022-08-28T00:27:06.697Z,1015.34
2022-08-28T00:27:34.794Z,1015.34
2022-08-28T00:27:53.199Z,1015.34
2022-08-28T00:28:25.153Z,1015.34
2022-08-28T00:28:42.237Z,1015.24
2022-08-28T00:29:13.961Z,1015.24
2022-08-28T00:29:34.752Z,1015.34
2022-08-28T00:30:01.342Z,1015.34
2022-08-28T00:30:33.912Z,1015.34
2022-08-28T00:31:07.165Z,1015.24
2022-08-28T00:31:35.173Z,1015.44
2022-08-28T00:31:54.072Z,1015.44
2022-08-28T00:32:26.167Z,1015.44
2022-08-28T00:32:43.551Z,1015.24
2022-08-28T00:33:13.088Z,1015.24
2022-08-28T00:33:35.699Z,1015.34
2022-08-28T00:34:01.490Z,1015.34
2022-08-28T00:34:34.332Z,1015.34
2022-08-28T00:35:06.144Z,1015.61
2022-08-28T00:35:34.718Z,1015.44
2022-08-28T00:35:53.214Z,1015.44
2022-08-28T00:36:25.184Z,1015.44
2022-08-28T00:36:43.161Z,1015.14
2022-08-28T00:37:14.781Z,1015.14
2022-08-28T00:37:34.799Z,1015.24
2022-08-28T00:38:01.130Z,1015.24
2022-08-28T00:38:34.104Z,1015.24
2022-08-28T00:39:05.211Z,1015.34
2022-08-28T00:39:35.448Z,1015.34
2022-08-28T00:39:53.170Z,1015.34
2022-08-28T00:40:28.807Z,1015.34
2022-08-28T00:40:43.445Z,1015.24
2022-08-28T00:41:13.224Z,1015.24
2022-08-28T00:41:35.009Z,1015.24
2022-08-28T00:42:01.755Z,1015.24
2022-08-28T00:42:33.091Z,1015.24
2022-08-28T00:43:05.984Z,1015.61
2022-08-28T00:43:34.755Z,1015.24
2022-08-28T00:43:53.980Z,1015.24
2022-08-28T00:44:25.108Z,1015.24
2022-08-28T00:44:42.268Z,1015.51
2022-08-28T00:45:14.077Z,1015.51
2022-08-28T00:45:39.818Z,1015.61
2022-08-28T00:46:01.278Z,1015.61
2022-08-28T00:46:34.940Z,1015.61
2022-08-28T00:47:05.113Z,1015.44
2022-08-28T00:47:35.414Z,1015.44
2022-08-28T00:48:09.236Z,1015.44
2022-08-28T00:48:34.814Z,1015.34
2022-08-28T00:48:57.784Z,1015.34
2022-08-28T00:49:29.108Z,1015.34
2022-08-28T00:50:02.012Z,1015.34
2022-08-28T00:50:33.138Z,1015.34
2022-08-28T00:51:05.091Z,1015.51
2022-08-28T00:51:34.709Z,1015.61
2022-08-28T00:51:53.427Z,1015.61
2022-08-28T00:52:25.812Z,1015.61
2022-08-28T00:52:43.459Z,1015.51
2022-08-28T00:53:14.073Z,1015.51
2022-08-28T00:53:34.792Z,1015.51
2022-08-28T00:54:05.477Z,1015.51
2022-08-28T00:54:34.059Z,1015.51
2022-08-28T00:55:05.282Z,1015.44
2022-08-28T00:55:35.740Z,1015.51
2022-08-28T00:55:53.869Z,1015.51
2022-08-28T00:56:25.076Z,1015.51
2022-08-28T00:56:42.177Z,1015.51
2022-08-28T00:57:13.185Z,1015.51
2022-08-28T00:57:35.780Z,1015.71
2022-08-28T00:58:04.389Z,1015.71
2022-08-28T00:58:36.076Z,1015.71
2022-08-28T00:59:05.111Z,1015.34
2022-08-28T00:59:35.397Z,1015.34
2022-08-28T01:00:11.109Z,1015.34
2022-08-28T01:00:34.686Z,1015.44
2022-08-28T01:00:57.151Z,1015.44
2022-08-28T01:01:29.161Z,1015.44
2022-08-28T01:02:01.864Z,1015.44
2022-08-28T01:02:33.351Z,1015.44
2022-08-28T01:03:06.073Z,1015.51
2022-08-28T01:03:34.781Z,1015.24
2022-08-28T01:03:53.131Z,1015.24
2022-08-28T01:04:25.174Z,1015.24
2022-08-28T01:04:42.643Z,1015.34
2022-08-28T01:05:14.008Z,1015.34
2022-08-28T01:05:36.103Z,1015.44
2022-08-28T01:06:01.119Z,1015.44
2022-08-28T01:06:34.450Z,1015.44
2022-08-28T01:07:06.057Z,1015.71
2022-08-28T01:07:34.698Z,1015.44
2022-08-28T01:07:53.930Z,1015.44
2022-08-28T01:08:25.074Z,1015.44
2022-08-28T01:08:42.211Z,1015.44
2022-08-28T01:09:13.744Z,1015.44
2022-08-28T01:09:34.818Z,1015.71
2022-08-28T01:10:01.242Z,1015.71
2022-08-28T01:10:34.076Z,1015.71
2022-08-28T01:11:05.081Z,1015.71
2022-08-28T01:11:35.436Z,1015.71
2022-08-28T01:12:09.092Z,1015.71
2022-08-28T01:12:34.692Z,1015.71
2022-08-28T01:12:57.050Z,1015.71
2022-08-28T01:13:29.195Z,1015.71
2022-08-28T01:14:03.242Z,1015.51
2022-08-28T01:14:34.071Z,1015.51
2022-08-28T01:15:05.228Z,1015.44
2022-08-28T01:15:34.807Z,1015.61
2022-08-28T01:15:53.237Z,1015.61
2022-08-28T01:16:30.831Z,1015.61
2022-08-28T01:16:57.058Z,1015.61
2022-08-28T01:17:29.082Z,1015.61
2022-08-28T01:18:05.902Z,1015.51
2022-08-28T01:18:33.154Z,1015.51
2022-08-28T01:19:05.106Z,1015.34
2022-08-28T01:19:36.656Z,1015.51
2022-08-28T01:19:53.805Z,1015.51
2022-08-28T01:20:25.171Z,1015.51
2022-08-28T01:20:42.168Z,1015.71
2022-08-28T01:21:13.240Z,1015.71
2022-08-28T01:21:36.100Z,1015.51
2022-08-28T01:22:01.973Z,1015.51
2022-08-28T01:22:33.048Z,1015.51
2022-08-28T01:23:06.741Z,1015.92
2022-08-28T01:23:34.780Z,1015.34
2022-08-28T01:23:53.099Z,1015.34
2022-08-28T01:24:25.788Z,1015.34
2022-08-28T01:24:57.086Z,1015.51
2022-08-28T01:25:29.258Z,1015.51
2022-08-28T01:26:01.363Z,1015.51
2022-08-28T01:26:33.813Z,1015.51
2022-08-28T01:27:06.060Z,1015.44
2022-08-28T01:27:35.676Z,1015.51
2022-08-28T01:27:54.115Z,1015.51
2022-08-28T01:28:25.125Z,1015.51
2022-08-28T01:28:42.263Z,1015.61
2022-08-28T01:29:13.061Z,1015.61
2022-08-28T01:29:35.506Z,1015.44
2022-08-28T01:30:02.104Z,1015.44
2022-08-28T01:30:33.140Z,1015.44
2022-08-28T01:31:05.145Z,1015.51
2022-08-28T01:31:34.805Z,1015.51
2022-08-28T01:31:54.073Z,1015.51
2022-08-28T01:32:25.899Z,1015.51
2022-08-28T01:32:43.689Z,1015.44
2022-08-28T01:33:13.952Z,1015.44
2022-08-28T01:33:34.772Z,1015.34
2022-08-28T01:34:01.883Z,1015.34
2022-08-28T01:34:34.333Z,1015.34
2022-08-28T01:35:05.308Z,1015.44
2022-08-28T01:35:36.080Z,1015.44
2022-08-28T01:36:10.877Z,1015.44
2022-08-28T01:36:35.504Z,1015.51
2022-08-28T01:36:57.195Z,1015.51
2022-08-28T01:37:30.105Z,1015.51
2022-08-28T01:38:01.158Z,1015.51
2022-08-28T01:38:34.050Z,1015.51
2022-08-28T01:39:05.046Z,1015.61
2022-08-28T01:39:34.819Z,1015.51
2022-08-28T01:39:53.889Z,1015.51
2022-08-28T01:40:25.347Z,1015.51
2022-08-28T01:40:42.615Z,1015.44
2022-08-28T01:41:13.065Z,1015.44
2022-08-28T01:41:35.525Z,1015.44
2022-08-28T01:42:01.957Z,1015.44
2022-08-28T01:42:33.121Z,1015.44
2022-08-28T01:43:05.777Z,1015.44
2022-08-28T01:43:34.707Z,1015.44
2022-08-28T01:43:53.100Z,1015.44
2022-08-28T01:44:25.143Z,1015.44
2022-08-28T01:44:42.253Z,1015.51
2022-08-28T01:45:15.892Z,1015.51
2022-08-28T01:45:36.057Z,1015.51
2022-08-28T01:46:01.167Z,1015.51
2022-08-28T01:46:34.177Z,1015.51
2022-08-28T01:47:05.142Z,1015.51
2022-08-28T01:47:34.943Z,1015.44
2022-08-28T01:47:53.021Z,1015.44
2022-08-28T01:48:25.928Z,1015.44
2022-08-28T01:48:43.567Z,1015.51
2022-08-28T01:49:13.124Z,1015.51
2022-08-28T01:49:34.734Z,1015.71
2022-08-28T01:50:01.159Z,1015.71
2022-08-28T01:50:33.960Z,1015.71
2022-08-28T01:51:05.027Z,1015.51
2022-08-28T01:51:38.209Z,1015.61
2022-08-28T01:51:54.805Z,1015.61
2022-08-28T01:52:26.456Z,1015.61
2022-08-28T01:52:42.990Z,1015.51
2022-08-28T01:53:13.040Z,1015.51
2022-08-28T01:53:35.810Z,1015.61
2022-08-28T01:54:01.996Z,1015.61
2022-08-28T01:54:33.134Z,1015.61
2022-08-28T01:55:05.889Z,1015.44
2022-08-28T01:55:34.702Z,1015.71
2022-08-28T01:55:54.003Z,1015.71
2022-08-28T01:56:25.845Z,1015.71
2022-08-28T01:56:58.326Z,1015.71
2022-08-28T01:57:29.120Z,1015.71
2022-08-28T01:58:02.054Z,1015.61
2022-08-28T01:58:37.409Z,1015.61
2022-08-28T01:59:05.152Z,1015.51
2022-08-28T01:59:34.747Z,1015.61
2022-08-28T02:00:09.960Z,1015.61
2022-08-28T02:00:36.811Z,1015.61
2022-08-28T02:00:58.059Z,1015.61
2022-08-28T02:01:29.999Z,1015.61
2022-08-28T02:02:01.785Z,1015.61
2022-08-28T02:02:33.047Z,1015.61
2022-08-28T02:03:05.963Z,1015.61
2022-08-28T02:03:34.799Z,1015.71
2022-08-28T02:03:54.568Z,1015.71
2022-08-28T02:04:32.140Z,1015.71
2022-08-28T02:04:45.003Z,1015.61
2022-08-28T02:05:14.057Z,1015.61
2022-08-28T02:05:34.700Z,1015.61
2022-08-28T02:06:01.173Z,1015.61
2022-08-28T02:06:33.825Z,1015.61
2022-08-28T02:07:05.076Z,1015.61
2022-08-28T02:07:34.747Z,1015.44
2022-08-28T02:07:53.849Z,1015.44
2022-08-28T02:08:25.101Z,1015.44
2022-08-28T02:08:42.239Z,1015.51
2022-08-28T02:09:14.882Z,1015.51
2022-08-28T02:09:35.211Z,1015.81
2022-08-28T02:10:01.176Z,1015.81
2022-08-28T02:10:33.129Z,1015.81
2022-08-28T02:11:05.093Z,1015.81
2022-08-28T02:11:35.701Z,1015.71
2022-08-28T02:11:53.050Z,1015.71
2022-08-28T02:12:25.808Z,1015.71
2022-08-28T02:12:59.013Z,1015.61
2022-08-28T02:13:30.915Z,1015.61
2022-08-28T02:14:01.049Z,1015.71
2022-08-28T02:14:33.036Z,1015.71
2022-08-28T02:15:05.944Z,1015.61
2022-08-28T02:15:34.760Z,1015.61
2022-08-28T02:15:53.269Z,1015.61
2022-08-28T02:16:25.047Z,1015.61
2022-08-28T02:16:43.137Z,1015.61
2022-08-28T02:17:13.851Z,1015.61
2022-08-28T02:17:35.617Z,1015.71
2022-08-28T02:18:01.114Z,1015.71
2022-08-28T02:18:33.071Z,1015.71
2022-08-28T02:19:05.009Z,1015.51
2022-08-28T02:19:36.413Z,1015.61
2022-08-28T02:19:53.013Z,1015.61
2022-08-28T02:20:26.763Z,1015.61
2022-08-28T02:20:57.925Z,1015.51
2022-08-28T02:21:29.045Z,1015.51
2022-08-28T02:22:01.471Z,1015.61
2022-08-28T02:22:33.252Z,1015.61
2022-08-28T02:23:05.007Z,1015.51
2022-08-28T02:23:36.428Z,1015.61
2022-08-28T02:23:53.706Z,1015.61
2022-08-28T02:24:25.077Z,1015.61
2022-08-28T02:24:42.515Z,1015.92
2022-08-28T02:25:13.950Z,1015.92
2022-08-28T02:25:35.521Z,1015.92
2022-08-28T02:26:01.793Z,1015.92
2022-08-28T02:26:33.240Z,1015.92
2022-08-28T02:27:05.140Z,1015.71
2022-08-28T02:27:34.825Z,1015.44
2022-08-28T02:27:53.033Z,1015.44
2022-08-28T02:28:26.851Z,1015.44
2022-08-28T02:28:57.033Z,1015.71
2022-08-28T02:29:29.104Z,1015.71
2022-08-28T02:30:01.310Z,1015.81
2022-08-28T02:30:33.103Z,1015.81
2022-08-28T02:31:05.137Z,1015.81
2022-08-28T02:31:34.826Z,1015.81
2022-08-28T02:31:53.724Z,1015.81
2022-08-28T02:32:25.007Z,1015.81
2022-08-28T02:32:42.132Z,1015.61
2022-08-28T02:33:13.835Z,1015.61
2022-08-28T02:33:34.714Z,1015.71
2022-08-28T02:34:02.035Z,1015.71
2022-08-28T02:34:33.072Z,1015.71
2022-08-28T02:35:05.182Z,1015.71
2022-08-28T02:35:37.048Z,1015.71
2022-08-28T02:36:09.145Z,1015.71
2022-08-28T02:36:34.776Z,1015.71
2022-08-28T02:36:57.795Z,1015.71
2022-08-28T02:37:29.718Z,1015.71
2022-08-28T02:38:02.053Z,1015.61
2022-08-28T02:38:33.097Z,1015.61
2022-08-28T02:39:05.909Z,1015.61
2022-08-28T02:39:36.853Z,1015.71
2022-08-28T02:40:10.221Z,1015.71
2022-08-28T02:40:34.826Z,1015.61
2022-08-28T02:41:08.901Z,1015.61
2022-08-28T02:41:29.196Z,1015.61
2022-08-28T02:42:01.920Z,1015.81
2022-08-28T02:42:33.823Z,1015.81
2022-08-28T02:43:05.080Z,1015.81
2022-08-28T02:43:36.118Z,1015.81
2022-08-28T02:44:09.009Z,1015.81
2022-08-28T02:44:36.813Z,1015.81
2022-08-28T02:44:57.034Z,1015.81
2022-08-28T02:45:29.333Z,1015.81
2022-08-28T02:46:01.979Z,1015.81
2022-08-28T02:46:34.795Z,1015.81
2022-08-28T02:47:05.848Z,1015.81
2022-08-28T02:47:35.841Z,1015.71
2022-08-28T02:47:54.065Z,1015.71
2022-08-28T02:48:26.014Z,1015.71
2022-08-28T02:48:42.600Z,1015.71
2022-08-28T02:49:13.039Z,1015.71
2022-08-28T02:49:34.740Z,1015.71
2022-08-28T02:50:01.855Z,1015.71
2022-08-28T02:50:33.385Z,1015.71
2022-08-28T02:51:06.699Z,1015.81
2022-08-28T02:51:36.767Z,1015.71
2022-08-28T02:52:10.131Z,1015.71
2022-08-28T02:52:35.801Z,1015.81
2022-08-28T02:52:56.984Z,1015.81
2022-08-28T02:53:29.745Z,1015.81
2022-08-28T02:54:01.025Z,1015.81
2022-08-28T02:54:37.036Z,1015.81
2022-08-28T02:55:05.198Z,1015.81
2022-08-28T02:55:34.731Z,1016.02
2022-08-28T02:55:53.174Z,1016.02
2022-08-28T02:56:24.999Z,1016.02
2022-08-28T02:56:43.771Z,1015.81
2022-08-28T02:57:13.740Z,1015.81
2022-08-28T02:57:37.311Z,1015.71
2022-08-28T02:58:01.531Z,1015.71
2022-08-28T02:58:34.060Z,1015.71
2022-08-28T02:59:05.129Z,1015.81
2022-08-28T02:59:35.418Z,1016.02
2022-08-28T02:59:54.379Z,1016.02
2022-08-28T03:00:25.205Z,1016.02
2022-08-28T03:00:42.127Z,1015.92
2022-08-28T03:01:13.137Z,1015.92
2022-08-28T03:01:34.752Z,1015.81
2022-08-28T03:02:01.989Z,1015.81
2022-08-28T03:02:34.058Z,1015.81
2022-08-28T03:03:05.009Z,1015.92
2022-08-28T03:03:35.010Z,1015.81
2022-08-28T03:03:53.106Z,1015.81
2022-08-28T03:04:26.698Z,1015.81
2022-08-28T03:04:56.997Z,1015.81
2022-08-28T03:05:30.160Z,1015.81
2022-08-28T03:06:02.619Z,1015.92
2022-08-28T03:06:33.072Z,1015.92
2022-08-28T03:07:05.725Z,1016.02
2022-08-28T03:07:35.697Z,1015.81
2022-08-28T03:07:53.005Z,1015.81
2022-08-28T03:08:27.362Z,1015.81
2022-08-28T03:08:42.729Z,1015.61
2022-08-28T03:09:12.984Z,1015.61
2022-08-28T03:09:35.517Z,1016.02
2022-08-28T03:10:01.109Z,1016.02
2022-08-28T03:10:33.908Z,1016.02
2022-08-28T03:11:06.117Z,1015.92
2022-08-28T03:11:35.224Z,1015.81
2022-08-28T03:11:53.805Z,1015.81
2022-08-28T03:12:24.993Z,1015.81
2022-08-28T03:12:42.185Z,1015.81
2022-08-28T03:13:23.041Z,1015.81
2022-08-28T03:13:35.978Z,1015.81
2022-08-28T03:14:01.773Z,1015.81
2022-08-28T03:14:33.037Z,1015.81
2022-08-28T03:15:05.324Z,1015.92
2022-08-28T03:15:35.577Z,1016.12
2022-08-28T03:15:56.019Z,1016.12
2022-08-28T03:16:25.806Z,1016.12
2022-08-28T03:16:58.125Z,1015.92
2022-08-28T03:17:29.585Z,1015.92
2022-08-28T03:18:01.169Z,1016.02
2022-08-28T03:18:33.029Z,1016.02
2022-08-28T03:19:05.053Z,1016.02
2022-08-28T03:19:34.794Z,1015.92
2022-08-28T03:19:53.682Z,1015.92
2022-08-28T03:20:25.200Z,1015.92
2022-08-28T03:20:43.696Z,1015.71
2022-08-28T03:21:13.010Z,1015.71
2022-08-28T03:21:35.199Z,1015.71
2022-08-28T03:22:01.447Z,1015.71
2022-08-28T03:22:33.074Z,1015.71
2022-08-28T03:23:04.976Z,1015.81
2022-08-28T03:23:34.744Z,1016.02
2022-08-28T03:23:52.987Z,1016.02
2022-08-28T03:24:25.709Z,1016.02
2022-08-28T03:24:57.073Z,1015.92
2022-08-28T03:25:29.125Z,1015.92
2022-08-28T03:26:01.051Z,1015.81
2022-08-28T03:26:33.080Z,1015.81
2022-08-28T03:27:05.079Z,1015.81
2022-08-28T03:27:34.726Z,1015.92
2022-08-28T03:27:53.760Z,1015.92
2022-08-28T03:28:26.090Z,1015.92
2022-08-28T03:28:44.397Z,1015.71
2022-08-28T03:29:13.753Z,1015.71
2022-08-28T03:29:34.835Z,1016.02
2022-08-28T03:30:01.163Z,1016.02
2022-08-28T03:30:33.012Z,1016.02
2022-08-28T03:31:05.066Z,1015.92
2022-08-28T03:31:34.703Z,1015.81
2022-08-28T03:31:53.043Z,1015.81
2022-08-28T03:32:25.774Z,1015.81
2022-08-28T03:32:42.871Z,1015.81
2022-08-28T03:33:13.071Z,1015.81
2022-08-28T03:33:34.784Z,1015.81
2022-08-28T03:34:01.813Z,1015.81
2022-08-28T03:34:32.978Z,1015.81
2022-08-28T03:35:05.153Z,1015.81
2022-08-28T03:35:34.798Z,1015.92
2022-08-28T03:35:53.151Z,1015.92
2022-08-28T03:36:26.625Z,1015.92
2022-08-28T03:36:58.493Z,1016.02
2022-08-28T03:37:29.003Z,1016.02
2022-08-28T03:38:01.091Z,1015.92
2022-08-28T03:38:33.088Z,1015.92
2022-08-28T03:39:05.715Z,1015.92
2022-08-28T03:39:34.705Z,1016.02
2022-08-28T03:39:53.074Z,1016.02
2022-08-28T03:40:27.291Z,1016.02
2022-08-28T03:40:57.906Z,1015.81
2022-08-28T03:41:30.011Z,1015.81
2022-08-28T03:42:01.905Z,1015.71
2022-08-28T03:42:33.001Z,1015.71
2022-08-28T03:43:05.144Z,1015.92
2022-08-28T03:43:34.737Z,1015.92
2022-08-28T03:43:52.970Z,1015.92
2022-08-28T03:44:26.529Z,1015.92
2022-08-28T03:44:57.979Z,1015.71
2022-08-28T03:45:29.798Z,1015.71
2022-08-28T03:46:01.032Z,1015.92
2022-08-28T03:46:34.718Z,1015.92
2022-08-28T03:47:05.007Z,1015.92
2022-08-28T03:47:35.663Z,1016.02
2022-08-28T03:47:53.982Z,1016.02
2022-08-28T03:48:25.023Z,1016.02
2022-08-28T03:48:42.669Z,1016.02
2022-08-28T03:49:13.807Z,1016.02
2022-08-28T03:49:34.710Z,1015.92
2022-08-28T03:50:01.256Z,1015.92
2022-08-28T03:50:33.874Z,1015.92
2022-08-28T03:51:05.885Z,1015.81
2022-08-28T03:51:34.724Z,1016.02
2022-08-28T03:51:53.657Z,1016.02
2022-08-28T03:52:25.033Z,1016.02
2022-08-28T03:52:42.178Z,1016.12
2022-08-28T03:53:14.021Z,1016.12
2022-08-28T03:53:35.818Z,1016.12
2022-08-28T03:54:01.752Z,1016.12
2022-08-28T03:54:33.006Z,1016.12
2022-08-28T03:55:05.208Z,1015.81
2022-08-28T03:55:36.180Z,1015.92
2022-08-28T03:55:53.116Z,1015.92
2022-08-28T03:56:26.667Z,1015.92
2022-08-28T03:56:57.089Z,1016.02
2022-08-28T03:57:30.061Z,1016.02
2022-08-28T03:58:01.752Z,1016.32
2022-08-28T03:58:33.003Z,1016.32
2022-08-28T03:59:05.787Z,1015.92
2022-08-28T03:59:35.321Z,1016.22
2022-08-28T03:59:53.038Z,1016.22
2022-08-28T04:00:25.258Z,1016.22
2022-08-28T04:00:42.076Z,1015.92
2022-08-28T04:01:13.808Z,1015.92
2022-08-28T04:01:35.454Z,1015.92
2022-08-28T04:02:01.092Z,1015.92
2022-08-28T04:02:32.957Z,1015.92
2022-08-28T04:03:05.914Z,1016.12
2022-08-28T04:03:34.848Z,1016.12
2022-08-28T04:03:53.002Z,1016.12
2022-08-28T04:04:26.742Z,1016.12
2022-08-28T04:04:57.242Z,1016.12
2022-08-28T04:05:29.887Z,1016.12
2022-08-28T04:06:00.984Z,1016.12
2022-08-28T04:06:34.093Z,1016.12
2022-08-28T04:07:05.052Z,1016.02
2022-08-28T04:07:34.721Z,1016.12
2022-08-28T04:07:53.741Z,1016.12
2022-08-28T04:08:24.965Z,1016.12
2022-08-28T04:08:43.628Z,1016.02
2022-08-28T04:09:13.678Z,1016.02
2022-08-28T04:09:35.828Z,1016.22
2022-08-28T04:10:01.057Z,1016.22
2022-08-28T04:10:34.010Z,1016.22
2022-08-28T04:11:05.145Z,1016.02
2022-08-28T04:11:35.513Z,1016.02
2022-08-28T04:11:53.010Z,1016.02
2022-08-28T04:12:24.979Z,1016.02
2022-08-28T04:12:42.146Z,1015.92
2022-08-28T04:13:14.683Z,1015.92
2022-08-28T04:13:34.735Z,1016.12
2022-08-28T04:14:01.070Z,1016.12
2022-08-28T04:14:34.482Z,1016.12
2022-08-28T04:15:06.942Z,1015.92
2022-08-28T04:15:34.826Z,1016.22
2022-08-28T04:15:53.212Z,1016.22
2022-08-28T04:16:25.696Z,1016.22
2022-08-28T04:17:01.307Z,1016.22
2022-08-28T04:17:28.966Z,1016.22
2022-08-28T04:18:01.988Z,1016.12
2022-08-28T04:18:33.041Z,1016.12
2022-08-28T04:19:05.041Z,1016.32
2022-08-28T04:19:35.769Z,1016.02
2022-08-28T04:19:53.938Z,1016.02
2022-08-28T04:20:25.156Z,1016.02
2022-08-28T04:20:57.970Z,1016.02
2022-08-28T04:21:29.026Z,1016.02
2022-08-28T04:22:02.011Z,1016.02
2022-08-28T04:22:33.087Z,1016.02
2022-08-28T04:23:05.099Z,1016.22
2022-08-28T04:23:34.874Z,1016.22
2022-08-28T04:23:53.034Z,1016.22
2022-08-28T04:24:25.684Z,1016.22
2022-08-28T04:24:42.814Z,1016.12
2022-08-28T04:25:14.107Z,1016.12
2022-08-28T04:25:34.786Z,1016.32
2022-08-28T04:26:03.005Z,1016.32
2022-08-28T04:26:35.577Z,1016.02
2022-08-28T04:27:04.949Z,1016.02
2022-08-28T04:27:34.795Z,1016.12
2022-08-28T04:27:53.017Z,1016.12
2022-08-28T04:28:25.071Z,1016.12
2022-08-28T04:28:57.629Z,1016.12
2022-08-28T04:29:28.980Z,1016.12
2022-08-28T04:30:02.196Z,1016.12
2022-08-28T04:30:33.143Z,1016.12
2022-08-28T04:31:04.944Z,1016.12
2022-08-28T04:31:38.297Z,1016.42
2022-08-28T04:32:09.031Z,1016.42
2022-08-28T04:32:34.772Z,1016.42
2022-08-28T04:32:57.115Z,1016.42
2022-08-28T04:33:29.946Z,1016.42
2022-08-28T04:34:01.484Z,1016.12
2022-08-28T04:34:34.087Z,1016.12
2022-08-28T04:35:07.311Z,1016.52
2022-08-28T04:35:34.733Z,1016.52
2022-08-28T04:35:54.059Z,1016.52
2022-08-28T04:36:24.953Z,1016.52
2022-08-28T04:36:42.084Z,1016.22
2022-08-28T04:37:13.841Z,1016.22
2022-08-28T04:37:34.736Z,1016.22
2022-08-28T04:38:02.514Z,1016.22
2022-08-28T04:38:33.900Z,1016.22
2022-08-28T04:39:05.095Z,1016.42
2022-08-28T04:39:35.901Z,1016.42
2022-08-28T04:39:53.010Z,1016.42
2022-08-28T04:40:25.944Z,1016.42
2022-08-28T04:40:42.868Z,1016.42
2022-08-28T04:41:13.018Z,1016.42
2022-08-28T04:41:34.745Z,1016.12
2022-08-28T04:42:01.593Z,1016.12
2022-08-28T04:42:32.958Z,1016.12
2022-08-28T04:43:04.928Z,1016.42
2022-08-28T04:43:34.903Z,1016.22
2022-08-28T04:43:53.104Z,1016.22
2022-08-28T04:44:25.655Z,1016.22
2022-08-28T04:44:43.755Z,1016.42
2022-08-28T04:45:13.552Z,1016.42
2022-08-28T04:45:34.818Z,1016.32
2022-08-28T04:46:01.143Z,1016.32
2022-08-28T04:46:33.007Z,1016.32
2022-08-28T04:47:06.305Z,1016.32
2022-08-28T04:47:34.882Z,1016.32
2022-08-28T04:47:53.092Z,1016.32
2022-08-28T04:48:25.976Z,1016.32
2022-08-28T04:48:43.828Z,1016.52
2022-08-28T04:49:13.017Z,1016.52
2022-08-28T04:49:36.604Z,1016.42
2022-08-28T04:50:01.308Z,1016.42
2022-08-28T04:50:34.063Z,1016.42
2022-08-28T04:51:05.032Z,1016.52
2022-08-28T04:51:37.783Z,1016.42
2022-08-28T04:51:54.547Z,1016.42
2022-08-28T04:52:25.072Z,1016.42
2022-08-28T04:52:43.121Z,1016.22
2022-08-28T04:53:13.764Z,1016.22
2022-08-28T04:53:35.128Z,1016.63
2022-08-28T04:54:01.090Z,1016.63
2022-08-28T04:54:33.091Z,1016.63
2022-08-28T04:55:05.244Z,1016.42
2022-08-28T04:55:53.729Z,1016.42
2022-08-28T04:56:09.163Z,1016.42
2022-08-28T04:56:34.829Z,1016.42
2022-08-28T04:56:57.093Z,1016.42
2022-08-28T04:57:32.227Z,1016.42
2022-08-28T04:58:01.137Z,1016.32
2022-08-28T04:58:34.075Z,1016.32
2022-08-28T04:59:05.173Z,1016.42
2022-08-28T04:59:36.607Z,1016.42
2022-08-28T05:00:09.200Z,1016.42
2022-08-28T05:00:34.827Z,1016.52
2022-08-28T05:00:57.773Z,1016.52
2022-08-28T05:01:29.206Z,1016.52
2022-08-28T05:02:01.929Z,1016.32
2022-08-28T05:02:34.703Z,1016.32
2022-08-28T05:03:06.083Z,1016.32
2022-08-28T05:03:36.320Z,1016.22
2022-08-28T05:03:52.905Z,1016.22
2022-08-28T05:04:25.755Z,1016.22
2022-08-28T05:04:42.895Z,1016.42
2022-08-28T05:05:13.156Z,1016.42
2022-08-28T05:05:34.829Z,1016.52
2022-08-28T05:06:01.826Z,1016.52
2022-08-28T05:06:33.034Z,1016.52
2022-08-28T05:07:04.998Z,1016.52
2022-08-28T05:07:34.886Z,1016.22
2022-08-28T05:07:53.144Z,1016.22
2022-08-28T05:08:25.912Z,1016.22
2022-08-28T05:08:42.823Z,1016.32
2022-08-28T05:09:13.003Z,1016.32
2022-08-28T05:09:35.008Z,1016.42
2022-08-28T05:10:01.595Z,1016.42
2022-08-28T05:10:33.107Z,1016.42
2022-08-28T05:11:05.076Z,1016.52
2022-08-28T05:11:35.214Z,1016.42
2022-08-28T05:11:53.813Z,1016.42
2022-08-28T05:12:25.836Z,1016.42
2022-08-28T05:12:44.182Z,1016.63
2022-08-28T05:13:13.035Z,1016.63
2022-08-28T05:13:34.891Z,1016.52
2022-08-28T05:14:01.124Z,1016.52
2022-08-28T05:14:34.823Z,1016.52
2022-08-28T05:15:05.249Z,1016.42
2022-08-28T05:15:36.050Z,1016.52
2022-08-28T05:16:09.124Z,1016.52
2022-08-28T05:16:35.386Z,1016.73
2022-08-28T05:16:57.135Z,1016.73
2022-08-28T05:17:29.764Z,1016.73
2022-08-28T05:18:01.015Z,1016.42
2022-08-28T05:18:33.983Z,1016.42
2022-08-28T05:19:05.113Z,1016.73
2022-08-28T05:19:34.839Z,1016.63
2022-08-28T05:19:53.629Z,1016.63
2022-08-28T05:20:25.132Z,1016.63
2022-08-28T05:20:57.292Z,1016.73
2022-08-28T05:21:29.078Z,1016.73
2022-08-28T05:22:01.469Z,1016.73
2022-08-28T05:22:33.001Z,1016.73
2022-08-28T05:23:05.081Z,1016.63
2022-08-28T05:23:35.353Z,1016.52
2022-08-28T05:23:53.624Z,1016.52
2022-08-28T05:24:25.785Z,1016.52
2022-08-28T05:24:42.966Z,1016.63
2022-08-28T05:25:14.147Z,1016.63
2022-08-28T05:25:36.007Z,1016.42
2022-08-28T05:26:01.137Z,1016.42
2022-08-28T05:26:33.904Z,1016.42
2022-08-28T05:27:05.041Z,1016.83
2022-08-28T05:27:35.315Z,1016.83
2022-08-28T05:27:53.712Z,1016.83
2022-08-28T05:28:25.921Z,1016.83
2022-08-28T05:28:42.874Z,1016.73
2022-08-28T05:29:13.009Z,1016.73
2022-08-28T05:29:34.852Z,1016.83
2022-08-28T05:30:02.266Z,1016.83
2022-08-28T05:30:33.025Z,1016.83
2022-08-28T05:31:04.983Z,1016.63
2022-08-28T05:31:34.989Z,1016.63
2022-08-28T05:31:53.281Z,1016.63
2022-08-28T05:32:25.020Z,1016.63
2022-08-28T05:32:45.493Z,1016.73
2022-08-28T05:33:13.969Z,1016.73
2022-08-28T05:33:35.516Z,1016.83
2022-08-28T05:34:01.595Z,1016.83
2022-08-28T05:34:33.050Z,1016.83
2022-08-28T05:35:06.684Z,1016.73
2022-08-28T05:35:34.863Z,1016.93
2022-08-28T05:35:53.230Z,1016.93
2022-08-28T05:36:25.360Z,1016.93
2022-08-28T05:36:42.168Z,1016.73